Sacramento, California
Traffic Map
Current Weather Conditions
Sacramento, California
Clear
Clear
73°
Feels Like: 73°
Wind Chill: 73° Ceiling: Unl
Heat Index: 73° Visibility: 10mi
Dew Point: 50° Wind: 3mph
Humidity: 44% Direction: 210° (SSW)
Pressure: 29.84in Gusts: 0mph
Raw Report DataKSAC 280553Z 21003KT 10SM CLR 23/10 A2984 RMK AO2 SLP102 T02280100 10367 20222 51005
Traffic Incident Summary
Active as of:
Severity:
Category:
InformationThere was an issue retrieving the traffic information for this location. Please try a different location or try again shortly.
Advertisements
Track Severe Weather on mobile